sensor_id;sensor_type;location;lat;lon;timestamp;P1;durP1;ratioP1;P2;durP2;ratioP2
19388;SDS011;9830;41.876;23.474;2022-09-30T00:01:36;1.07;;;0.90;;
19388;SDS011;9830;41.876;23.474;2022-09-30T00:04:05;0.63;;;0.63;;
19388;SDS011;9830;41.876;23.474;2022-09-30T00:06:34;1.13;;;0.83;;
19388;SDS011;9830;41.876;23.474;2022-09-30T00:09:00;0.70;;;0.70;;
19388;SDS011;9830;41.876;23.474;2022-09-30T00:11:30;0.77;;;0.50;;
19388;SDS011;9830;41.876;23.474;2022-09-30T00:13:58;0.63;;;0.63;;
19388;SDS011;9830;41.876;23.474;2022-09-30T00:16:25;0.90;;;0.90;;
19388;SDS011;9830;41.876;23.474;2022-09-30T00:18:54;1.07;;;1.07;;
19388;SDS011;9830;41.876;23.474;2022-09-30T00:21:21;1.50;;;0.83;;
19388;SDS011;9830;41.876;23.474;2022-09-30T00:23:47;1.23;;;1.20;;
19388;SDS011;9830;41.876;23.474;2022-09-30T00:26:15;5.83;;;2.03;;
19388;SDS011;9830;41.876;23.474;2022-09-30T00:28:42;1.37;;;1.27;;
19388;SDS011;9830;41.876;23.474;2022-09-30T00:31:12;0.33;;;0.33;;
19388;SDS011;9830;41.876;23.474;2022-09-30T00:33:41;1.93;;;1.43;;
19388;SDS011;9830;41.876;23.474;2022-09-30T00:36:07;0.57;;;0.57;;
19388;SDS011;9830;41.876;23.474;2022-09-30T00:38:33;0.53;;;0.53;;
19388;SDS011;9830;41.876;23.474;2022-09-30T00:40:59;1.23;;;1.13;;
19388;SDS011;9830;41.876;23.474;2022-09-30T00:43:43;0.50;;;0.50;;
19388;SDS011;9830;41.876;23.474;2022-09-30T00:46:20;3.13;;;1.53;;
19388;SDS011;9830;41.876;23.474;2022-09-30T00:49:08;3.07;;;1.27;;
19388;SDS011;9830;41.876;23.474;2022-09-30T00:51:43;0.60;;;0.60;;
19388;SDS011;9830;41.876;23.474;2022-09-30T00:54:13;1.13;;;1.03;;
19388;SDS011;9830;41.876;23.474;2022-09-30T00:56:43;2.77;;;1.93;;
19388;SDS011;9830;41.876;23.474;2022-09-30T00:59:18;0.90;;;0.83;;
19388;SDS011;9830;41.876;23.474;2022-09-30T01:02:02;0.87;;;0.73;;
19388;SDS011;9830;41.876;23.474;2022-09-30T01:04:30;0.70;;;0.70;;
19388;SDS011;9830;41.876;23.474;2022-09-30T01:07:04;0.77;;;0.77;;
19388;SDS011;9830;41.876;23.474;2022-09-30T01:09:34;1.10;;;1.00;;
19388;SDS011;9830;41.876;23.474;2022-09-30T01:12:06;5.00;;;3.17;;
19388;SDS011;9830;41.876;23.474;2022-09-30T01:14:38;0.70;;;0.70;;
19388;SDS011;9830;41.876;23.474;2022-09-30T01:49:22;0.63;;;0.63;;
19388;SDS011;9830;41.876;23.474;2022-09-30T01:52:15;0.77;;;0.77;;
19388;SDS011;9830;41.876;23.474;2022-09-30T01:54:55;0.60;;;0.60;;
19388;SDS011;9830;41.876;23.474;2022-09-30T02:00:19;1.70;;;1.33;;
19388;SDS011;9830;41.876;23.474;2022-09-30T02:05:28;3.53;;;1.17;;
19388;SDS011;9830;41.876;23.474;2022-09-30T02:08:03;1.93;;;1.43;;
19388;SDS011;9830;41.876;23.474;2022-09-30T02:10:57;0.80;;;0.80;;
19388;SDS011;9830;41.876;23.474;2022-09-30T02:13:28;1.93;;;1.83;;
19388;SDS011;9830;41.876;23.474;2022-09-30T02:16:00;1.80;;;1.20;;
19388;SDS011;9830;41.876;23.474;2022-09-30T02:21:27;0.77;;;0.77;;
19388;SDS011;9830;41.876;23.474;2022-09-30T02:23:59;0.50;;;0.50;;
19388;SDS011;9830;41.876;23.474;2022-09-30T02:26:31;35.77;;;2.03;;
19388;SDS011;9830;41.876;23.474;2022-09-30T02:29:22;3.50;;;0.73;;
19388;SDS011;9830;41.876;23.474;2022-09-30T02:31:52;1.37;;;1.00;;
19388;SDS011;9830;41.876;23.474;2022-09-30T02:34:25;4.47;;;1.50;;
19388;SDS011;9830;41.876;23.474;2022-09-30T02:39:42;0.87;;;0.87;;
19388;SDS011;9830;41.876;23.474;2022-09-30T02:42:13;0.77;;;0.70;;
19388;SDS011;9830;41.876;23.474;2022-09-30T02:44:52;2.97;;;1.20;;
19388;SDS011;9830;41.876;23.474;2022-09-30T02:47:24;0.70;;;0.70;;
19388;SDS011;9830;41.876;23.474;2022-09-30T02:58:10;1.93;;;0.80;;
19388;SDS011;9830;41.876;23.474;2022-09-30T03:00:39;0.40;;;0.40;;
19388;SDS011;9830;41.876;23.474;2022-09-30T03:03:11;0.77;;;0.77;;
19388;SDS011;9830;41.876;23.474;2022-09-30T03:05:40;0.57;;;0.57;;
19388;SDS011;9830;41.876;23.474;2022-09-30T03:08:07;1.50;;;0.47;;
19388;SDS011;9830;41.876;23.474;2022-09-30T03:10:34;1.80;;;1.07;;
19388;SDS011;9830;41.876;23.474;2022-09-30T03:26:24;6.23;;;1.57;;
19388;SDS011;9830;41.876;23.474;2022-09-30T03:40:00;0.63;;;0.63;;
19388;SDS011;9830;41.876;23.474;2022-09-30T03:42:46;8.60;;;2.03;;
19388;SDS011;9830;41.876;23.474;2022-09-30T03:48:07;7.03;;;1.97;;
19388;SDS011;9830;41.876;23.474;2022-09-30T03:50:35;1.53;;;1.43;;
19388;SDS011;9830;41.876;23.474;2022-09-30T03:53:02;1.93;;;1.73;;
19388;SDS011;9830;41.876;23.474;2022-09-30T03:55:33;0.57;;;0.50;;
19388;SDS011;9830;41.876;23.474;2022-09-30T03:58:12;1.37;;;1.27;;
19388;SDS011;9830;41.876;23.474;2022-09-30T04:00:40;1.70;;;1.10;;
19388;SDS011;9830;41.876;23.474;2022-09-30T04:03:12;3.00;;;2.07;;
19388;SDS011;9830;41.876;23.474;2022-09-30T04:05:38;1.70;;;1.60;;
19388;SDS011;9830;41.876;23.474;2022-09-30T04:08:04;11.70;;;3.80;;
19388;SDS011;9830;41.876;23.474;2022-09-30T04:10:29;7.27;;;2.37;;
19388;SDS011;9830;41.876;23.474;2022-09-30T04:12:55;4.17;;;1.90;;
19388;SDS011;9830;41.876;23.474;2022-09-30T04:15:21;8.93;;;1.83;;
19388;SDS011;9830;41.876;23.474;2022-09-30T04:17:47;0.80;;;0.80;;
19388;SDS011;9830;41.876;23.474;2022-09-30T04:20:13;6.27;;;2.83;;
19388;SDS011;9830;41.876;23.474;2022-09-30T04:22:39;3.97;;;3.40;;
19388;SDS011;9830;41.876;23.474;2022-09-30T04:25:05;0.60;;;0.60;;
19388;SDS011;9830;41.876;23.474;2022-09-30T04:27:31;1.97;;;1.40;;
19388;SDS011;9830;41.876;23.474;2022-09-30T04:29:57;0.60;;;0.60;;
19388;SDS011;9830;41.876;23.474;2022-09-30T04:32:22;1.67;;;1.57;;
19388;SDS011;9830;41.876;23.474;2022-09-30T04:34:49;2.77;;;1.93;;
19388;SDS011;9830;41.876;23.474;2022-09-30T04:37:18;1.27;;;1.17;;
19388;SDS011;9830;41.876;23.474;2022-09-30T04:39:43;1.53;;;1.43;;
19388;SDS011;9830;41.876;23.474;2022-09-30T04:42:09;1.73;;;1.63;;
19388;SDS011;9830;41.876;23.474;2022-09-30T04:44:35;0.53;;;0.53;;
19388;SDS011;9830;41.876;23.474;2022-09-30T04:47:01;1.03;;;0.93;;
19388;SDS011;9830;41.876;23.474;2022-09-30T04:49:26;3.20;;;1.67;;
19388;SDS011;9830;41.876;23.474;2022-09-30T04:51:52;2.03;;;1.53;;
19388;SDS011;9830;41.876;23.474;2022-09-30T04:54:18;0.63;;;0.30;;
19388;SDS011;9830;41.876;23.474;2022-09-30T04:56:44;1.50;;;1.00;;
19388;SDS011;9830;41.876;23.474;2022-09-30T04:59:10;2.07;;;1.60;;
19388;SDS011;9830;41.876;23.474;2022-09-30T05:01:36;1.10;;;1.00;;
19388;SDS011;9830;41.876;23.474;2022-09-30T05:04:03;1.27;;;1.17;;
19388;SDS011;9830;41.876;23.474;2022-09-30T05:06:29;11.37;;;3.30;;
19388;SDS011;9830;41.876;23.474;2022-09-30T05:08:54;3.80;;;1.73;;
19388;SDS011;9830;41.876;23.474;2022-09-30T05:11:20;1.13;;;0.77;;
19388;SDS011;9830;41.876;23.474;2022-09-30T05:13:47;2.00;;;1.87;;
19388;SDS011;9830;41.876;23.474;2022-09-30T05:16:14;4.90;;;2.07;;
19388;SDS011;9830;41.876;23.474;2022-09-30T05:18:40;1.50;;;1.40;;
19388;SDS011;9830;41.876;23.474;2022-09-30T05:21:09;2.13;;;1.83;;
19388;SDS011;9830;41.876;23.474;2022-09-30T05:23:36;1.50;;;1.33;;
19388;SDS011;9830;41.876;23.474;2022-09-30T05:26:02;4.53;;;2.20;;
19388;SDS011;9830;41.876;23.474;2022-09-30T05:28:29;1.90;;;1.70;;
19388;SDS011;9830;41.876;23.474;2022-09-30T05:30:59;13.20;;;4.10;;
19388;SDS011;9830;41.876;23.474;2022-09-30T05:33:30;7.20;;;2.57;;
19388;SDS011;9830;41.876;23.474;2022-09-30T05:36:04;1.63;;;1.53;;
19388;SDS011;9830;41.876;23.474;2022-09-30T05:38:31;1.43;;;1.40;;
19388;SDS011;9830;41.876;23.474;2022-09-30T05:40:57;7.87;;;2.90;;
19388;SDS011;9830;41.876;23.474;2022-09-30T05:43:23;18.53;;;3.00;;
19388;SDS011;9830;41.876;23.474;2022-09-30T05:45:52;3.83;;;3.50;;
19388;SDS011;9830;41.876;23.474;2022-09-30T05:48:19;10.03;;;4.47;;
19388;SDS011;9830;41.876;23.474;2022-09-30T05:50:45;20.03;;;5.97;;
19388;SDS011;9830;41.876;23.474;2022-09-30T05:53:14;8.13;;;3.57;;
19388;SDS011;9830;41.876;23.474;2022-09-30T05:55:43;21.63;;;6.10;;
19388;SDS011;9830;41.876;23.474;2022-09-30T05:58:11;4.93;;;4.23;;
19388;SDS011;9830;41.876;23.474;2022-09-30T06:00:39;6.47;;;3.87;;
19388;SDS011;9830;41.876;23.474;2022-09-30T06:03:05;6.57;;;4.80;;
19388;SDS011;9830;41.876;23.474;2022-09-30T06:05:31;5.83;;;5.27;;
19388;SDS011;9830;41.876;23.474;2022-09-30T06:07:57;3.40;;;3.10;;
19388;SDS011;9830;41.876;23.474;2022-09-30T06:10:22;6.90;;;3.57;;
19388;SDS011;9830;41.876;23.474;2022-09-30T06:12:48;5.27;;;3.47;;
19388;SDS011;9830;41.876;23.474;2022-09-30T06:15:13;7.17;;;1.60;;
19388;SDS011;9830;41.876;23.474;2022-09-30T06:17:39;2.73;;;2.00;;
19388;SDS011;9830;41.876;23.474;2022-09-30T06:20:07;2.07;;;1.97;;
19388;SDS011;9830;41.876;23.474;2022-09-30T06:22:34;2.50;;;2.30;;
19388;SDS011;9830;41.876;23.474;2022-09-30T06:25:03;1.20;;;1.20;;
19388;SDS011;9830;41.876;23.474;2022-09-30T06:27:30;8.37;;;2.10;;
19388;SDS011;9830;41.876;23.474;2022-09-30T06:29:57;1.90;;;1.80;;
19388;SDS011;9830;41.876;23.474;2022-09-30T06:32:23;2.50;;;2.30;;
19388;SDS011;9830;41.876;23.474;2022-09-30T06:34:50;6.47;;;3.17;;
19388;SDS011;9830;41.876;23.474;2022-09-30T06:37:19;8.60;;;3.70;;
19388;SDS011;9830;41.876;23.474;2022-09-30T06:39:45;4.07;;;2.67;;
19388;SDS011;9830;41.876;23.474;2022-09-30T06:42:11;4.40;;;3.67;;
19388;SDS011;9830;41.876;23.474;2022-09-30T06:44:37;2.17;;;2.07;;
19388;SDS011;9830;41.876;23.474;2022-09-30T06:47:02;2.50;;;2.40;;
19388;SDS011;9830;41.876;23.474;2022-09-30T06:49:28;2.70;;;2.37;;
19388;SDS011;9830;41.876;23.474;2022-09-30T06:51:54;2.60;;;2.40;;
19388;SDS011;9830;41.876;23.474;2022-09-30T06:54:20;2.30;;;2.13;;
19388;SDS011;9830;41.876;23.474;2022-09-30T06:56:46;6.57;;;3.10;;
19388;SDS011;9830;41.876;23.474;2022-09-30T06:59:13;3.87;;;1.57;;
19388;SDS011;9830;41.876;23.474;2022-09-30T07:01:41;1.73;;;1.63;;
19388;SDS011;9830;41.876;23.474;2022-09-30T07:04:09;3.73;;;2.60;;
19388;SDS011;9830;41.876;23.474;2022-09-30T07:06:35;7.18;;;2.78;;
19388;SDS011;9830;41.876;23.474;2022-09-30T07:09:02;2.60;;;2.40;;
19388;SDS011;9830;41.876;23.474;2022-09-30T07:11:29;2.40;;;2.20;;
19388;SDS011;9830;41.876;23.474;2022-09-30T07:13:54;2.88;;;2.67;;
19388;SDS011;9830;41.876;23.474;2022-09-30T07:16:21;7.78;;;3.47;;
19388;SDS011;9830;41.876;23.474;2022-09-30T07:18:49;3.63;;;2.95;;
19388;SDS011;9830;41.876;23.474;2022-09-30T07:21:15;3.88;;;2.95;;
19388;SDS011;9830;41.876;23.474;2022-09-30T07:23:44;2.90;;;2.20;;
19388;SDS011;9830;41.876;23.474;2022-09-30T07:26:11;2.35;;;2.25;;
19388;SDS011;9830;41.876;23.474;2022-09-30T07:28:41;3.53;;;3.28;;
19388;SDS011;9830;41.876;23.474;2022-09-30T07:31:15;3.67;;;2.13;;
19388;SDS011;9830;41.876;23.474;2022-09-30T07:33:46;1.83;;;1.73;;
19388;SDS011;9830;41.876;23.474;2022-09-30T07:36:14;3.00;;;2.80;;
19388;SDS011;9830;41.876;23.474;2022-09-30T07:38:42;1.75;;;1.65;;
19388;SDS011;9830;41.876;23.474;2022-09-30T07:41:43;2.33;;;2.17;;
19388;SDS011;9830;41.876;23.474;2022-09-30T07:44:03;2.38;;;2.17;;
19388;SDS011;9830;41.876;23.474;2022-09-30T07:46:31;1.95;;;1.85;;
19388;SDS011;9830;41.876;23.474;2022-09-30T07:48:58;1.75;;;1.65;;
19388;SDS011;9830;41.876;23.474;2022-09-30T07:51:35;2.22;;;2.05;;
19388;SDS011;9830;41.876;23.474;2022-09-30T07:54:04;1.40;;;1.35;;
19388;SDS011;9830;41.876;23.474;2022-09-30T07:56:32;3.60;;;1.88;;
19388;SDS011;9830;41.876;23.474;2022-09-30T07:58:59;2.15;;;1.45;;
19388;SDS011;9830;41.876;23.474;2022-09-30T08:01:28;2.33;;;2.13;;
19388;SDS011;9830;41.876;23.474;2022-09-30T08:03:59;2.28;;;2.00;;
19388;SDS011;9830;41.876;23.474;2022-09-30T08:06:28;0.82;;;0.82;;
19388;SDS011;9830;41.876;23.474;2022-09-30T08:08:56;0.95;;;0.90;;
19388;SDS011;9830;41.876;23.474;2022-09-30T08:11:23;0.85;;;0.85;;
19388;SDS011;9830;41.876;23.474;2022-09-30T08:13:53;1.17;;;1.08;;
19388;SDS011;9830;41.876;23.474;2022-09-30T08:16:20;1.48;;;1.38;;
19388;SDS011;9830;41.876;23.474;2022-09-30T08:18:46;1.67;;;1.58;;
19388;SDS011;9830;41.876;23.474;2022-09-30T08:21:13;0.70;;;0.70;;
19388;SDS011;9830;41.876;23.474;2022-09-30T08:23:39;1.48;;;1.38;;
19388;SDS011;9830;41.876;23.474;2022-09-30T08:26:06;3.88;;;2.13;;
19388;SDS011;9830;41.876;23.474;2022-09-30T08:28:34;1.13;;;1.05;;
19388;SDS011;9830;41.876;23.474;2022-09-30T08:31:06;1.73;;;1.20;;
19388;SDS011;9830;41.876;23.474;2022-09-30T08:33:34;1.95;;;1.67;;
19388;SDS011;9830;41.876;23.474;2022-09-30T08:36:04;1.73;;;1.23;;
19388;SDS011;9830;41.876;23.474;2022-09-30T08:38:35;0.67;;;0.67;;
19388;SDS011;9830;41.876;23.474;2022-09-30T08:52:27;1.47;;;1.40;;
19388;SDS011;9830;41.876;23.474;2022-09-30T08:54:59;10.30;;;1.97;;
19388;SDS011;9830;41.876;23.474;2022-09-30T08:57:27;0.85;;;0.85;;
19388;SDS011;9830;41.876;23.474;2022-09-30T09:00:03;2.05;;;1.55;;
19388;SDS011;9830;41.876;23.474;2022-09-30T09:02:48;0.77;;;0.77;;
19388;SDS011;9830;41.876;23.474;2022-09-30T09:08:03;2.17;;;1.08;;
19388;SDS011;9830;41.876;23.474;2022-09-30T09:10:56;0.35;;;0.35;;
19388;SDS011;9830;41.876;23.474;2022-09-30T09:13:49;2.58;;;0.95;;
19388;SDS011;9830;41.876;23.474;2022-09-30T09:16:28;1.23;;;1.13;;
19388;SDS011;9830;41.876;23.474;2022-09-30T09:19:01;0.80;;;0.80;;
19388;SDS011;9830;41.876;23.474;2022-09-30T09:24:04;1.20;;;1.10;;
19388;SDS011;9830;41.876;23.474;2022-09-30T09:26:51;0.32;;;0.32;;
19388;SDS011;9830;41.876;23.474;2022-09-30T09:29:40;0.85;;;0.85;;
19388;SDS011;9830;41.876;23.474;2022-09-30T09:32:29;0.70;;;0.70;;
19388;SDS011;9830;41.876;23.474;2022-09-30T09:34:59;0.40;;;0.40;;
19388;SDS011;9830;41.876;23.474;2022-09-30T09:37:58;0.50;;;0.50;;
19388;SDS011;9830;41.876;23.474;2022-09-30T09:41:03;0.60;;;0.60;;
19388;SDS011;9830;41.876;23.474;2022-09-30T09:43:42;1.08;;;0.80;;
19388;SDS011;9830;41.876;23.474;2022-09-30T09:46:15;0.73;;;0.73;;
19388;SDS011;9830;41.876;23.474;2022-09-30T09:48:42;0.40;;;0.40;;
19388;SDS011;9830;41.876;23.474;2022-09-30T09:51:15;0.47;;;0.43;;
19388;SDS011;9830;41.876;23.474;2022-09-30T09:53:51;0.55;;;0.55;;
19388;SDS011;9830;41.876;23.474;2022-09-30T09:56:28;1.67;;;1.13;;
19388;SDS011;9830;41.876;23.474;2022-09-30T10:01:38;0.55;;;0.55;;
19388;SDS011;9830;41.876;23.474;2022-09-30T10:04:25;1.05;;;0.98;;
19388;SDS011;9830;41.876;23.474;2022-09-30T10:07:14;0.65;;;0.65;;
19388;SDS011;9830;41.876;23.474;2022-09-30T10:09:39;1.85;;;1.75;;
19388;SDS011;9830;41.876;23.474;2022-09-30T10:14:33;0.45;;;0.45;;
19388;SDS011;9830;41.876;23.474;2022-09-30T10:19:51;0.50;;;0.50;;
19388;SDS011;9830;41.876;23.474;2022-09-30T10:22:23;0.30;;;0.30;;
19388;SDS011;9830;41.876;23.474;2022-09-30T10:24:57;4.88;;;1.25;;
19388;SDS011;9830;41.876;23.474;2022-09-30T10:27:52;0.45;;;0.45;;
19388;SDS011;9830;41.876;23.474;2022-09-30T10:30:31;1.55;;;0.55;;
19388;SDS011;9830;41.876;23.474;2022-09-30T10:38:25;12.90;;;0.85;;
19388;SDS011;9830;41.876;23.474;2022-09-30T10:40:53;0.57;;;0.57;;
19388;SDS011;9830;41.876;23.474;2022-09-30T10:43:25;0.22;;;0.22;;
19388;SDS011;9830;41.876;23.474;2022-09-30T10:45:57;0.50;;;0.50;;
19388;SDS011;9830;41.876;23.474;2022-09-30T10:48:28;1.30;;;0.68;;
19388;SDS011;9830;41.876;23.474;2022-09-30T10:50:58;0.55;;;0.55;;
19388;SDS011;9830;41.876;23.474;2022-09-30T10:53:28;0.32;;;0.32;;
19388;SDS011;9830;41.876;23.474;2022-09-30T10:55:57;1.13;;;0.57;;
19388;SDS011;9830;41.876;23.474;2022-09-30T11:03:57;0.68;;;0.68;;
19388;SDS011;9830;41.876;23.474;2022-09-30T11:06:39;0.20;;;0.20;;
19388;SDS011;9830;41.876;23.474;2022-09-30T11:14:43;0.50;;;0.50;;
19388;SDS011;9830;41.876;23.474;2022-09-30T11:19:58;0.13;;;0.13;;
19388;SDS011;9830;41.876;23.474;2022-09-30T11:22:36;0.20;;;0.20;;
19388;SDS011;9830;41.876;23.474;2022-09-30T11:28:00;0.50;;;0.50;;
19388;SDS011;9830;41.876;23.474;2022-09-30T11:46:58;0.10;;;0.10;;
19388;SDS011;9830;41.876;23.474;2022-09-30T11:52:15;0.40;;;0.40;;
19388;SDS011;9830;41.876;23.474;2022-09-30T11:58:07;0.80;;;0.50;;
19388;SDS011;9830;41.876;23.474;2022-09-30T12:00:57;0.43;;;0.43;;
19388;SDS011;9830;41.876;23.474;2022-09-30T12:03:39;0.95;;;0.73;;
19388;SDS011;9830;41.876;23.474;2022-09-30T12:06:12;0.28;;;0.28;;
19388;SDS011;9830;41.876;23.474;2022-09-30T12:08:48;0.70;;;0.70;;
19388;SDS011;9830;41.876;23.474;2022-09-30T12:11:18;0.95;;;0.95;;
19388;SDS011;9830;41.876;23.474;2022-09-30T12:13:58;0.15;;;0.15;;
19388;SDS011;9830;41.876;23.474;2022-09-30T12:16:30;1.45;;;0.77;;
19388;SDS011;9830;41.876;23.474;2022-09-30T12:19:01;0.17;;;0.17;;
19388;SDS011;9830;41.876;23.474;2022-09-30T12:22:25;0.30;;;0.30;;
19388;SDS011;9830;41.876;23.474;2022-09-30T12:24:52;0.63;;;0.63;;
19388;SDS011;9830;41.876;23.474;2022-09-30T12:27:26;0.75;;;0.65;;
19388;SDS011;9830;41.876;23.474;2022-09-30T12:30:10;2.92;;;0.60;;
19388;SDS011;9830;41.876;23.474;2022-09-30T12:41:02;0.47;;;0.47;;
19388;SDS011;9830;41.876;23.474;2022-09-30T12:49:40;0.95;;;0.65;;
19388;SDS011;9830;41.876;23.474;2022-09-30T12:52:11;0.70;;;0.70;;
19388;SDS011;9830;41.876;23.474;2022-09-30T12:54:42;6.93;;;0.75;;
19388;SDS011;9830;41.876;23.474;2022-09-30T12:57:32;0.17;;;0.17;;
19388;SDS011;9830;41.876;23.474;2022-09-30T13:00:16;0.45;;;0.45;;
19388;SDS011;9830;41.876;23.474;2022-09-30T13:02:54;0.17;;;0.17;;
19388;SDS011;9830;41.876;23.474;2022-09-30T13:10:30;0.55;;;0.55;;
19388;SDS011;9830;41.876;23.474;2022-09-30T13:15:43;0.43;;;0.43;;
19388;SDS011;9830;41.876;23.474;2022-09-30T13:23:38;1.45;;;0.70;;
19388;SDS011;9830;41.876;23.474;2022-09-30T13:28:49;4.30;;;0.80;;
19388;SDS011;9830;41.876;23.474;2022-09-30T13:31:19;0.35;;;0.35;;
19388;SDS011;9830;41.876;23.474;2022-09-30T13:36:38;0.00;;;0.00;;
19388;SDS011;9830;41.876;23.474;2022-09-30T13:39:16;1.33;;;0.45;;
19388;SDS011;9830;41.876;23.474;2022-09-30T13:41:42;0.30;;;0.30;;
19388;SDS011;9830;41.876;23.474;2022-09-30T13:44:15;0.40;;;0.40;;
19388;SDS011;9830;41.876;23.474;2022-09-30T13:46:50;0.30;;;0.28;;
19388;SDS011;9830;41.876;23.474;2022-09-30T13:49:41;0.25;;;0.25;;
19388;SDS011;9830;41.876;23.474;2022-09-30T13:52:31;0.43;;;0.43;;
19388;SDS011;9830;41.876;23.474;2022-09-30T13:55:04;0.38;;;0.17;;
19388;SDS011;9830;41.876;23.474;2022-09-30T13:58:07;0.75;;;0.55;;
19388;SDS011;9830;41.876;23.474;2022-09-30T14:06:45;0.32;;;0.32;;
19388;SDS011;9830;41.876;23.474;2022-09-30T14:20:37;0.35;;;0.35;;
19388;SDS011;9830;41.876;23.474;2022-09-30T14:23:17;0.30;;;0.30;;
19388;SDS011;9830;41.876;23.474;2022-09-30T14:25:56;0.13;;;0.13;;
19388;SDS011;9830;41.876;23.474;2022-09-30T14:28:52;0.55;;;0.55;;
19388;SDS011;9830;41.876;23.474;2022-09-30T14:31:44;1.25;;;0.70;;
19388;SDS011;9830;41.876;23.474;2022-09-30T14:34:11;0.57;;;0.57;;
19388;SDS011;9830;41.876;23.474;2022-09-30T14:36:38;0.10;;;0.10;;
19388;SDS011;9830;41.876;23.474;2022-09-30T14:39:05;0.88;;;0.60;;
19388;SDS011;9830;41.876;23.474;2022-09-30T14:41:34;0.10;;;0.10;;
19388;SDS011;9830;41.876;23.474;2022-09-30T14:44:05;0.28;;;0.28;;
19388;SDS011;9830;41.876;23.474;2022-09-30T14:46:40;0.10;;;0.10;;
19388;SDS011;9830;41.876;23.474;2022-09-30T14:49:21;0.40;;;0.40;;
19388;SDS011;9830;41.876;23.474;2022-09-30T14:51:56;1.70;;;1.10;;
19388;SDS011;9830;41.876;23.474;2022-09-30T14:54:30;0.50;;;0.50;;
19388;SDS011;9830;41.876;23.474;2022-09-30T14:56:57;0.50;;;0.33;;
19388;SDS011;9830;41.876;23.474;2022-09-30T14:59:26;0.60;;;0.37;;
19388;SDS011;9830;41.876;23.474;2022-09-30T15:01:59;0.40;;;0.37;;
19388;SDS011;9830;41.876;23.474;2022-09-30T15:04:49;0.10;;;0.10;;
19388;SDS011;9830;41.876;23.474;2022-09-30T15:07:18;0.20;;;0.20;;
19388;SDS011;9830;41.876;23.474;2022-09-30T15:09:44;0.47;;;0.47;;
19388;SDS011;9830;41.876;23.474;2022-09-30T15:12:13;0.23;;;0.23;;
19388;SDS011;9830;41.876;23.474;2022-09-30T15:14:53;0.20;;;0.20;;
19388;SDS011;9830;41.876;23.474;2022-09-30T15:17:25;0.50;;;0.50;;
19388;SDS011;9830;41.876;23.474;2022-09-30T15:19:59;0.43;;;0.43;;
19388;SDS011;9830;41.876;23.474;2022-09-30T15:22:25;0.00;;;0.00;;
19388;SDS011;9830;41.876;23.474;2022-09-30T15:24:53;0.43;;;0.43;;
19388;SDS011;9830;41.876;23.474;2022-09-30T15:27:21;0.83;;;0.40;;
19388;SDS011;9830;41.876;23.474;2022-09-30T15:29:53;0.73;;;0.73;;
19388;SDS011;9830;41.876;23.474;2022-09-30T15:32:20;0.40;;;0.40;;
19388;SDS011;9830;41.876;23.474;2022-09-30T15:34:49;0.67;;;0.67;;
19388;SDS011;9830;41.876;23.474;2022-09-30T15:37:19;0.83;;;0.50;;
19388;SDS011;9830;41.876;23.474;2022-09-30T15:39:50;0.93;;;0.53;;
19388;SDS011;9830;41.876;23.474;2022-09-30T15:42:35;0.13;;;0.13;;
19388;SDS011;9830;41.876;23.474;2022-09-30T15:48:03;0.10;;;0.10;;
19388;SDS011;9830;41.876;23.474;2022-09-30T15:50:53;0.57;;;0.57;;
19388;SDS011;9830;41.876;23.474;2022-09-30T15:56:21;1.13;;;1.03;;
19388;SDS011;9830;41.876;23.474;2022-09-30T16:01:41;0.30;;;0.30;;
19388;SDS011;9830;41.876;23.474;2022-09-30T16:06:45;0.30;;;0.30;;
19388;SDS011;9830;41.876;23.474;2022-09-30T16:11:45;0.20;;;0.20;;
19388;SDS011;9830;41.876;23.474;2022-09-30T16:14:21;0.23;;;0.23;;
19388;SDS011;9830;41.876;23.474;2022-09-30T16:16:58;1.00;;;0.57;;
19388;SDS011;9830;41.876;23.474;2022-09-30T16:19:26;0.00;;;0.00;;
19388;SDS011;9830;41.876;23.474;2022-09-30T16:21:54;0.20;;;0.20;;
19388;SDS011;9830;41.876;23.474;2022-09-30T16:29:16;0.10;;;0.10;;
19388;SDS011;9830;41.876;23.474;2022-09-30T16:31:42;1.40;;;0.70;;
19388;SDS011;9830;41.876;23.474;2022-09-30T16:34:10;3.00;;;0.57;;
19388;SDS011;9830;41.876;23.474;2022-09-30T16:37:08;0.30;;;0.30;;
19388;SDS011;9830;41.876;23.474;2022-09-30T16:39:35;1.13;;;0.80;;
19388;SDS011;9830;41.876;23.474;2022-09-30T16:42:01;0.10;;;0.10;;
19388;SDS011;9830;41.876;23.474;2022-09-30T16:44:28;0.47;;;0.47;;
19388;SDS011;9830;41.876;23.474;2022-09-30T16:47:00;0.00;;;0.00;;
19388;SDS011;9830;41.876;23.474;2022-09-30T16:49:26;0.00;;;0.00;;
19388;SDS011;9830;41.876;23.474;2022-09-30T16:51:52;0.30;;;0.30;;
19388;SDS011;9830;41.876;23.474;2022-09-30T16:54:18;0.10;;;0.10;;
19388;SDS011;9830;41.876;23.474;2022-09-30T16:56:44;0.73;;;0.67;;
19388;SDS011;9830;41.876;23.474;2022-09-30T16:59:13;0.37;;;0.37;;
19388;SDS011;9830;41.876;23.474;2022-09-30T17:01:40;0.30;;;0.30;;
19388;SDS011;9830;41.876;23.474;2022-09-30T17:04:07;0.00;;;0.00;;
19388;SDS011;9830;41.876;23.474;2022-09-30T17:06:33;0.40;;;0.40;;
19388;SDS011;9830;41.876;23.474;2022-09-30T17:09:00;0.87;;;0.83;;
19388;SDS011;9830;41.876;23.474;2022-09-30T17:11:33;0.33;;;0.33;;
19388;SDS011;9830;41.876;23.474;2022-09-30T17:14:01;0.37;;;0.37;;
19388;SDS011;9830;41.876;23.474;2022-09-30T17:16:28;0.20;;;0.20;;
19388;SDS011;9830;41.876;23.474;2022-09-30T17:18:54;0.93;;;0.53;;
19388;SDS011;9830;41.876;23.474;2022-09-30T17:21:20;1.97;;;0.70;;
19388;SDS011;9830;41.876;23.474;2022-09-30T17:23:48;0.43;;;0.43;;
19388;SDS011;9830;41.876;23.474;2022-09-30T17:26:15;0.40;;;0.40;;
19388;SDS011;9830;41.876;23.474;2022-09-30T17:28:45;0.47;;;0.47;;
19388;SDS011;9830;41.876;23.474;2022-09-30T17:31:11;0.37;;;0.37;;
19388;SDS011;9830;41.876;23.474;2022-09-30T17:33:38;3.43;;;0.50;;
19388;SDS011;9830;41.876;23.474;2022-09-30T17:36:08;0.23;;;0.23;;
19388;SDS011;9830;41.876;23.474;2022-09-30T17:38:35;1.30;;;0.77;;
19388;SDS011;9830;41.876;23.474;2022-09-30T17:41:02;1.20;;;0.63;;
19388;SDS011;9830;41.876;23.474;2022-09-30T17:43:48;0.40;;;0.40;;
19388;SDS011;9830;41.876;23.474;2022-09-30T17:46:15;0.17;;;0.17;;
19388;SDS011;9830;41.876;23.474;2022-09-30T17:48:45;0.03;;;0.03;;
19388;SDS011;9830;41.876;23.474;2022-09-30T17:51:12;0.10;;;0.10;;
19388;SDS011;9830;41.876;23.474;2022-09-30T17:53:40;0.63;;;0.63;;
19388;SDS011;9830;41.876;23.474;2022-09-30T17:56:12;0.20;;;0.20;;
19388;SDS011;9830;41.876;23.474;2022-09-30T17:58:41;0.20;;;0.20;;
19388;SDS011;9830;41.876;23.474;2022-09-30T18:01:11;0.47;;;0.47;;
19388;SDS011;9830;41.876;23.474;2022-09-30T18:03:37;1.03;;;0.40;;
19388;SDS011;9830;41.876;23.474;2022-09-30T18:06:04;0.20;;;0.20;;
19388;SDS011;9830;41.876;23.474;2022-09-30T18:08:29;0.23;;;0.23;;
19388;SDS011;9830;41.876;23.474;2022-09-30T18:10:55;0.10;;;0.10;;
19388;SDS011;9830;41.876;23.474;2022-09-30T18:13:24;0.77;;;0.77;;
19388;SDS011;9830;41.876;23.474;2022-09-30T18:15:51;0.47;;;0.47;;
19388;SDS011;9830;41.876;23.474;2022-09-30T18:18:17;0.47;;;0.47;;
19388;SDS011;9830;41.876;23.474;2022-09-30T18:20:43;0.17;;;0.17;;
19388;SDS011;9830;41.876;23.474;2022-09-30T18:23:11;0.17;;;0.17;;
19388;SDS011;9830;41.876;23.474;2022-09-30T18:25:38;0.63;;;0.63;;
19388;SDS011;9830;41.876;23.474;2022-09-30T18:28:08;2.53;;;1.17;;
19388;SDS011;9830;41.876;23.474;2022-09-30T18:30:35;1.43;;;0.57;;
19388;SDS011;9830;41.876;23.474;2022-09-30T18:33:02;0.00;;;0.00;;
19388;SDS011;9830;41.876;23.474;2022-09-30T18:35:31;0.57;;;0.57;;
19388;SDS011;9830;41.876;23.474;2022-09-30T18:38:02;0.20;;;0.20;;
19388;SDS011;9830;41.876;23.474;2022-09-30T18:40:29;1.13;;;0.93;;
19388;SDS011;9830;41.876;23.474;2022-09-30T18:43:00;0.73;;;0.73;;
19388;SDS011;9830;41.876;23.474;2022-09-30T18:45:31;0.10;;;0.10;;
19388;SDS011;9830;41.876;23.474;2022-09-30T18:48:02;1.50;;;1.10;;
19388;SDS011;9830;41.876;23.474;2022-09-30T18:50:29;0.30;;;0.30;;